sensor_id;sensor_type;location;lat;lon;timestamp;P1;durP1;ratioP1;P2;durP2;ratioP2
14276;SDS011;7222;57.346;12.150;2023-11-18T00:01:30;4.43;;;2.30;;
14276;SDS011;7222;57.346;12.150;2023-11-18T00:03:58;2.90;;;1.60;;
14276;SDS011;7222;57.346;12.150;2023-11-18T00:06:24;3.73;;;2.10;;
14276;SDS011;7222;57.346;12.150;2023-11-18T00:08:53;3.70;;;2.10;;
14276;SDS011;7222;57.346;12.150;2023-11-18T00:11:20;3.37;;;2.07;;
14276;SDS011;7222;57.346;12.150;2023-11-18T00:13:47;2.60;;;1.87;;
14276;SDS011;7222;57.346;12.150;2023-11-18T00:16:13;2.97;;;2.00;;
14276;SDS011;7222;57.346;12.150;2023-11-18T00:18:42;3.17;;;2.07;;
14276;SDS011;7222;57.346;12.150;2023-11-18T00:21:09;3.77;;;2.30;;
14276;SDS011;7222;57.346;12.150;2023-11-18T00:23:36;2.53;;;1.90;;
14276;SDS011;7222;57.346;12.150;2023-11-18T00:26:05;3.07;;;1.97;;
14276;SDS011;7222;57.346;12.150;2023-11-18T00:28:33;3.37;;;2.30;;
14276;SDS011;7222;57.346;12.150;2023-11-18T00:31:00;1.77;;;1.63;;
14276;SDS011;7222;57.346;12.150;2023-11-18T00:33:29;2.70;;;1.60;;
14276;SDS011;7222;57.346;12.150;2023-11-18T00:35:56;3.37;;;1.87;;
14276;SDS011;7222;57.346;12.150;2023-11-18T00:38:23;3.47;;;1.77;;
14276;SDS011;7222;57.346;12.150;2023-11-18T00:40:49;3.73;;;1.93;;
14276;SDS011;7222;57.346;12.150;2023-11-18T00:43:18;6.27;;;2.20;;
14276;SDS011;7222;57.346;12.150;2023-11-18T00:45:45;2.33;;;1.60;;
14276;SDS011;7222;57.346;12.150;2023-11-18T00:48:12;3.00;;;2.07;;
14276;SDS011;7222;57.346;12.150;2023-11-18T00:50:39;2.53;;;1.63;;
14276;SDS011;7222;57.346;12.150;2023-11-18T00:53:06;5.17;;;2.30;;
14276;SDS011;7222;57.346;12.150;2023-11-18T00:55:33;2.57;;;1.90;;
14276;SDS011;7222;57.346;12.150;2023-11-18T00:58:00;3.30;;;2.00;;
14276;SDS011;7222;57.346;12.150;2023-11-18T01:00:28;2.50;;;2.00;;
14276;SDS011;7222;57.346;12.150;2023-11-18T01:02:55;2.63;;;1.80;;
14276;SDS011;7222;57.346;12.150;2023-11-18T01:05:22;3.07;;;1.97;;
14276;SDS011;7222;57.346;12.150;2023-11-18T01:07:49;3.23;;;1.93;;
14276;SDS011;7222;57.346;12.150;2023-11-18T01:10:16;3.10;;;2.57;;
14276;SDS011;7222;57.346;12.150;2023-11-18T01:12:44;3.40;;;2.10;;
14276;SDS011;7222;57.346;12.150;2023-11-18T01:15:11;4.00;;;2.23;;
14276;SDS011;7222;57.346;12.150;2023-11-18T01:17:40;2.20;;;1.77;;
14276;SDS011;7222;57.346;12.150;2023-11-18T01:20:07;3.17;;;2.20;;
14276;SDS011;7222;57.346;12.150;2023-11-18T01:22:36;3.60;;;2.40;;
14276;SDS011;7222;57.346;12.150;2023-11-18T01:25:04;4.00;;;2.10;;
14276;SDS011;7222;57.346;12.150;2023-11-18T01:27:33;3.20;;;2.17;;
14276;SDS011;7222;57.346;12.150;2023-11-18T01:30:00;3.73;;;2.20;;
14276;SDS011;7222;57.346;12.150;2023-11-18T01:32:29;4.03;;;2.47;;
14276;SDS011;7222;57.346;12.150;2023-11-18T01:34:57;2.23;;;1.97;;
14276;SDS011;7222;57.346;12.150;2023-11-18T01:37:24;4.77;;;2.57;;
14276;SDS011;7222;57.346;12.150;2023-11-18T01:39:51;3.90;;;2.20;;
14276;SDS011;7222;57.346;12.150;2023-11-18T01:42:18;2.63;;;1.60;;
14276;SDS011;7222;57.346;12.150;2023-11-18T01:44:45;4.30;;;2.40;;
14276;SDS011;7222;57.346;12.150;2023-11-18T01:47:12;2.80;;;2.20;;
14276;SDS011;7222;57.346;12.150;2023-11-18T01:49:39;3.93;;;2.40;;
14276;SDS011;7222;57.346;12.150;2023-11-18T01:52:10;2.83;;;1.90;;
14276;SDS011;7222;57.346;12.150;2023-11-18T01:54:37;3.33;;;1.80;;
14276;SDS011;7222;57.346;12.150;2023-11-18T01:57:05;3.97;;;2.23;;
14276;SDS011;7222;57.346;12.150;2023-11-18T01:59:34;3.50;;;2.30;;
14276;SDS011;7222;57.346;12.150;2023-11-18T02:02:03;3.43;;;2.23;;
14276;SDS011;7222;57.346;12.150;2023-11-18T02:04:31;1.90;;;1.60;;
14276;SDS011;7222;57.346;12.150;2023-11-18T02:06:58;4.73;;;2.47;;
14276;SDS011;7222;57.346;12.150;2023-11-18T02:09:30;2.97;;;1.70;;
14276;SDS011;7222;57.346;12.150;2023-11-18T02:11:59;2.63;;;1.80;;
14276;SDS011;7222;57.346;12.150;2023-11-18T02:14:31;4.27;;;2.63;;
14276;SDS011;7222;57.346;12.150;2023-11-18T02:17:02;3.97;;;2.40;;
14276;SDS011;7222;57.346;12.150;2023-11-18T02:19:30;5.93;;;2.20;;
14276;SDS011;7222;57.346;12.150;2023-11-18T02:21:57;2.13;;;1.80;;
14276;SDS011;7222;57.346;12.150;2023-11-18T02:24:26;3.77;;;2.70;;
14276;SDS011;7222;57.346;12.150;2023-11-18T02:26:58;2.43;;;1.43;;
14276;SDS011;7222;57.346;12.150;2023-11-18T02:29:26;5.53;;;2.33;;
14276;SDS011;7222;57.346;12.150;2023-11-18T02:31:57;5.57;;;3.00;;
14276;SDS011;7222;57.346;12.150;2023-11-18T02:34:30;4.40;;;2.40;;
14276;SDS011;7222;57.346;12.150;2023-11-18T02:37:00;4.97;;;3.27;;
14276;SDS011;7222;57.346;12.150;2023-11-18T02:39:32;4.50;;;2.40;;
14276;SDS011;7222;57.346;12.150;2023-11-18T02:42:07;3.73;;;2.53;;
14276;SDS011;7222;57.346;12.150;2023-11-18T02:44:35;3.70;;;1.87;;
14276;SDS011;7222;57.346;12.150;2023-11-18T02:47:04;2.40;;;1.90;;
14276;SDS011;7222;57.346;12.150;2023-11-18T02:49:31;3.23;;;2.07;;
14276;SDS011;7222;57.346;12.150;2023-11-18T02:51:58;2.63;;;1.90;;
14276;SDS011;7222;57.346;12.150;2023-11-18T02:54:25;2.23;;;1.80;;
14276;SDS011;7222;57.346;12.150;2023-11-18T02:56:52;2.33;;;1.77;;
14276;SDS011;7222;57.346;12.150;2023-11-18T02:59:21;4.60;;;2.80;;
14276;SDS011;7222;57.346;12.150;2023-11-18T03:01:48;3.73;;;2.67;;
14276;SDS011;7222;57.346;12.150;2023-11-18T03:04:14;3.33;;;2.30;;
14276;SDS011;7222;57.346;12.150;2023-11-18T03:06:41;5.03;;;2.87;;
14276;SDS011;7222;57.346;12.150;2023-11-18T03:09:07;6.10;;;2.07;;
14276;SDS011;7222;57.346;12.150;2023-11-18T03:11:35;4.60;;;3.00;;
14276;SDS011;7222;57.346;12.150;2023-11-18T03:14:02;4.13;;;2.60;;
14276;SDS011;7222;57.346;12.150;2023-11-18T03:16:35;5.70;;;2.90;;
14276;SDS011;7222;57.346;12.150;2023-11-18T03:19:03;5.67;;;2.70;;
14276;SDS011;7222;57.346;12.150;2023-11-18T03:21:30;4.63;;;2.80;;
14276;SDS011;7222;57.346;12.150;2023-11-18T03:23:57;4.37;;;2.67;;
14276;SDS011;7222;57.346;12.150;2023-11-18T03:26:24;6.07;;;3.17;;
14276;SDS011;7222;57.346;12.150;2023-11-18T03:28:52;6.27;;;2.97;;
14276;SDS011;7222;57.346;12.150;2023-11-18T03:31:18;5.30;;;3.07;;
14276;SDS011;7222;57.346;12.150;2023-11-18T03:33:49;6.27;;;3.27;;
14276;SDS011;7222;57.346;12.150;2023-11-18T03:36:16;5.73;;;2.37;;
14276;SDS011;7222;57.346;12.150;2023-11-18T03:38:43;8.63;;;3.70;;
14276;SDS011;7222;57.346;12.150;2023-11-18T03:41:10;5.57;;;2.77;;
14276;SDS011;7222;57.346;12.150;2023-11-18T03:43:38;5.77;;;2.93;;
14276;SDS011;7222;57.346;12.150;2023-11-18T03:46:05;5.27;;;3.00;;
14276;SDS011;7222;57.346;12.150;2023-11-18T03:48:32;4.27;;;2.20;;
14276;SDS011;7222;57.346;12.150;2023-11-18T03:51:02;4.27;;;2.50;;
14276;SDS011;7222;57.346;12.150;2023-11-18T03:53:29;6.80;;;2.97;;
14276;SDS011;7222;57.346;12.150;2023-11-18T03:55:58;5.30;;;3.00;;
14276;SDS011;7222;57.346;12.150;2023-11-18T03:58:25;4.23;;;2.43;;
14276;SDS011;7222;57.346;12.150;2023-11-18T04:00:52;6.07;;;3.40;;
14276;SDS011;7222;57.346;12.150;2023-11-18T04:03:19;7.83;;;3.23;;
14276;SDS011;7222;57.346;12.150;2023-11-18T04:05:46;3.00;;;2.10;;
14276;SDS011;7222;57.346;12.150;2023-11-18T04:08:14;5.93;;;3.20;;
14276;SDS011;7222;57.346;12.150;2023-11-18T04:10:41;3.53;;;2.47;;
14276;SDS011;7222;57.346;12.150;2023-11-18T04:13:08;5.47;;;3.20;;
14276;SDS011;7222;57.346;12.150;2023-11-18T04:15:35;6.53;;;3.20;;
14276;SDS011;7222;57.346;12.150;2023-11-18T04:18:02;5.20;;;2.87;;
14276;SDS011;7222;57.346;12.150;2023-11-18T04:20:29;5.37;;;2.80;;
14276;SDS011;7222;57.346;12.150;2023-11-18T04:22:55;5.83;;;3.20;;
14276;SDS011;7222;57.346;12.150;2023-11-18T04:25:24;7.80;;;2.63;;
14276;SDS011;7222;57.346;12.150;2023-11-18T04:27:51;8.87;;;4.10;;
14276;SDS011;7222;57.346;12.150;2023-11-18T04:30:18;5.73;;;2.97;;
14276;SDS011;7222;57.346;12.150;2023-11-18T04:32:45;4.17;;;2.53;;
14276;SDS011;7222;57.346;12.150;2023-11-18T04:35:12;4.37;;;2.83;;
14276;SDS011;7222;57.346;12.150;2023-11-18T04:37:40;5.87;;;3.20;;
14276;SDS011;7222;57.346;12.150;2023-11-18T04:40:11;7.50;;;4.00;;
14276;SDS011;7222;57.346;12.150;2023-11-18T04:42:39;4.57;;;2.70;;
14276;SDS011;7222;57.346;12.150;2023-11-18T04:45:07;11.00;;;3.27;;
14276;SDS011;7222;57.346;12.150;2023-11-18T04:47:35;6.00;;;3.27;;
14276;SDS011;7222;57.346;12.150;2023-11-18T04:50:03;11.03;;;3.20;;
14276;SDS011;7222;57.346;12.150;2023-11-18T04:52:30;10.63;;;3.47;;
14276;SDS011;7222;57.346;12.150;2023-11-18T04:55:01;8.30;;;3.23;;
14276;SDS011;7222;57.346;12.150;2023-11-18T04:57:28;8.00;;;4.20;;
14276;SDS011;7222;57.346;12.150;2023-11-18T04:59:56;6.17;;;3.53;;
14276;SDS011;7222;57.346;12.150;2023-11-18T05:02:23;8.37;;;3.70;;
14276;SDS011;7222;57.346;12.150;2023-11-18T05:04:50;5.73;;;2.97;;
14276;SDS011;7222;57.346;12.150;2023-11-18T05:07:16;7.43;;;2.97;;
14276;SDS011;7222;57.346;12.150;2023-11-18T05:09:43;10.57;;;3.47;;
14276;SDS011;7222;57.346;12.150;2023-11-18T05:12:10;5.03;;;2.50;;
14276;SDS011;7222;57.346;12.150;2023-11-18T05:14:37;7.50;;;2.43;;
14276;SDS011;7222;57.346;12.150;2023-11-18T05:17:05;5.73;;;3.43;;
14276;SDS011;7222;57.346;12.150;2023-11-18T05:19:32;4.97;;;2.63;;
14276;SDS011;7222;57.346;12.150;2023-11-18T05:21:59;4.97;;;3.30;;
14276;SDS011;7222;57.346;12.150;2023-11-18T05:24:26;4.33;;;2.80;;
14276;SDS011;7222;57.346;12.150;2023-11-18T05:26:53;6.83;;;2.40;;
14276;SDS011;7222;57.346;12.150;2023-11-18T05:29:20;6.73;;;3.27;;
14276;SDS011;7222;57.346;12.150;2023-11-18T05:31:50;5.77;;;2.83;;
14276;SDS011;7222;57.346;12.150;2023-11-18T05:34:19;4.70;;;3.03;;
14276;SDS011;7222;57.346;12.150;2023-11-18T05:36:46;4.57;;;2.87;;
14276;SDS011;7222;57.346;12.150;2023-11-18T05:39:13;6.77;;;3.50;;
14276;SDS011;7222;57.346;12.150;2023-11-18T05:41:40;4.50;;;3.17;;
14276;SDS011;7222;57.346;12.150;2023-11-18T05:44:11;4.77;;;2.80;;
14276;SDS011;7222;57.346;12.150;2023-11-18T05:46:42;5.20;;;2.87;;
14276;SDS011;7222;57.346;12.150;2023-11-18T05:49:11;5.33;;;2.73;;
14276;SDS011;7222;57.346;12.150;2023-11-18T05:51:40;4.53;;;2.90;;
14276;SDS011;7222;57.346;12.150;2023-11-18T05:54:07;4.90;;;3.30;;
14276;SDS011;7222;57.346;12.150;2023-11-18T05:56:34;3.33;;;2.27;;
14276;SDS011;7222;57.346;12.150;2023-11-18T05:59:01;5.70;;;3.30;;
14276;SDS011;7222;57.346;12.150;2023-11-18T06:01:28;5.70;;;3.40;;
14276;SDS011;7222;57.346;12.150;2023-11-18T06:03:56;4.90;;;2.83;;
14276;SDS011;7222;57.346;12.150;2023-11-18T06:06:24;5.87;;;3.40;;
14276;SDS011;7222;57.346;12.150;2023-11-18T06:08:52;4.30;;;2.00;;
14276;SDS011;7222;57.346;12.150;2023-11-18T06:11:19;6.47;;;2.80;;
14276;SDS011;7222;57.346;12.150;2023-11-18T06:13:48;4.43;;;2.27;;
14276;SDS011;7222;57.346;12.150;2023-11-18T06:16:16;9.57;;;2.87;;
14276;SDS011;7222;57.346;12.150;2023-11-18T06:18:45;6.43;;;2.93;;
14276;SDS011;7222;57.346;12.150;2023-11-18T06:21:13;4.47;;;2.43;;
14276;SDS011;7222;57.346;12.150;2023-11-18T06:23:41;3.13;;;2.27;;
14276;SDS011;7222;57.346;12.150;2023-11-18T06:26:10;4.07;;;2.43;;
14276;SDS011;7222;57.346;12.150;2023-11-18T06:28:38;2.50;;;2.03;;
14276;SDS011;7222;57.346;12.150;2023-11-18T06:31:06;5.77;;;2.43;;
14276;SDS011;7222;57.346;12.150;2023-11-18T06:33:37;4.40;;;2.33;;
14276;SDS011;7222;57.346;12.150;2023-11-18T06:36:08;5.60;;;2.73;;
14276;SDS011;7222;57.346;12.150;2023-11-18T06:38:36;3.57;;;2.60;;
14276;SDS011;7222;57.346;12.150;2023-11-18T06:41:03;3.47;;;2.33;;
14276;SDS011;7222;57.346;12.150;2023-11-18T06:43:36;3.30;;;2.40;;
14276;SDS011;7222;57.346;12.150;2023-11-18T06:46:16;4.53;;;2.40;;
14276;SDS011;7222;57.346;12.150;2023-11-18T06:48:45;4.63;;;2.70;;
14276;SDS011;7222;57.346;12.150;2023-11-18T06:51:13;3.73;;;2.30;;
14276;SDS011;7222;57.346;12.150;2023-11-18T06:53:40;4.43;;;2.20;;
14276;SDS011;7222;57.346;12.150;2023-11-18T06:56:08;4.07;;;2.23;;
14276;SDS011;7222;57.346;12.150;2023-11-18T06:58:38;3.70;;;2.30;;
14276;SDS011;7222;57.346;12.150;2023-11-18T07:01:05;4.33;;;2.37;;
14276;SDS011;7222;57.346;12.150;2023-11-18T07:03:33;4.33;;;2.67;;
14276;SDS011;7222;57.346;12.150;2023-11-18T07:05:59;5.83;;;2.90;;
14276;SDS011;7222;57.346;12.150;2023-11-18T07:08:26;3.67;;;2.77;;
14276;SDS011;7222;57.346;12.150;2023-11-18T07:10:53;3.27;;;2.47;;
14276;SDS011;7222;57.346;12.150;2023-11-18T07:13:21;2.83;;;2.27;;
14276;SDS011;7222;57.346;12.150;2023-11-18T07:15:50;4.23;;;2.43;;
14276;SDS011;7222;57.346;12.150;2023-11-18T07:18:19;4.57;;;2.80;;
14276;SDS011;7222;57.346;12.150;2023-11-18T07:20:47;4.53;;;2.93;;
14276;SDS011;7222;57.346;12.150;2023-11-18T07:23:16;5.27;;;3.10;;
14276;SDS011;7222;57.346;12.150;2023-11-18T07:25:43;4.60;;;2.93;;
14276;SDS011;7222;57.346;12.150;2023-11-18T07:28:10;6.17;;;3.07;;
14276;SDS011;7222;57.346;12.150;2023-11-18T07:30:37;3.03;;;1.90;;
14276;SDS011;7222;57.346;12.150;2023-11-18T07:33:05;3.73;;;2.23;;
14276;SDS011;7222;57.346;12.150;2023-11-18T07:35:33;3.67;;;2.20;;
14276;SDS011;7222;57.346;12.150;2023-11-18T07:38:01;5.10;;;2.50;;
14276;SDS011;7222;57.346;12.150;2023-11-18T07:40:28;3.57;;;2.43;;
14276;SDS011;7222;57.346;12.150;2023-11-18T07:42:55;4.30;;;2.80;;
14276;SDS011;7222;57.346;12.150;2023-11-18T07:45:22;3.93;;;2.30;;
14276;SDS011;7222;57.346;12.150;2023-11-18T07:47:49;4.30;;;2.57;;
14276;SDS011;7222;57.346;12.150;2023-11-18T07:50:18;2.83;;;2.13;;
14276;SDS011;7222;57.346;12.150;2023-11-18T07:52:46;3.83;;;2.40;;
14276;SDS011;7222;57.346;12.150;2023-11-18T07:55:13;3.93;;;2.57;;
14276;SDS011;7222;57.346;12.150;2023-11-18T07:57:40;3.17;;;1.87;;
14276;SDS011;7222;57.346;12.150;2023-11-18T08:00:08;3.47;;;2.40;;
14276;SDS011;7222;57.346;12.150;2023-11-18T08:02:35;3.50;;;2.00;;
14276;SDS011;7222;57.346;12.150;2023-11-18T08:05:03;3.57;;;2.20;;
14276;SDS011;7222;57.346;12.150;2023-11-18T08:07:33;4.20;;;2.37;;
14276;SDS011;7222;57.346;12.150;2023-11-18T08:10:01;4.43;;;2.40;;
14276;SDS011;7222;57.346;12.150;2023-11-18T08:12:30;3.70;;;2.00;;
14276;SDS011;7222;57.346;12.150;2023-11-18T08:14:57;5.03;;;2.53;;
14276;SDS011;7222;57.346;12.150;2023-11-18T08:17:24;5.03;;;3.03;;
14276;SDS011;7222;57.346;12.150;2023-11-18T08:19:51;3.17;;;2.40;;
14276;SDS011;7222;57.346;12.150;2023-11-18T08:22:18;2.70;;;1.50;;
14276;SDS011;7222;57.346;12.150;2023-11-18T08:24:49;3.40;;;2.20;;
14276;SDS011;7222;57.346;12.150;2023-11-18T08:27:16;4.70;;;2.40;;
14276;SDS011;7222;57.346;12.150;2023-11-18T08:29:43;3.67;;;2.70;;
14276;SDS011;7222;57.346;12.150;2023-11-18T08:32:11;3.63;;;2.80;;
14276;SDS011;7222;57.346;12.150;2023-11-18T08:34:38;4.10;;;2.70;;
14276;SDS011;7222;57.346;12.150;2023-11-18T08:37:05;4.40;;;2.73;;
14276;SDS011;7222;57.346;12.150;2023-11-18T08:39:34;5.80;;;3.40;;
14276;SDS011;7222;57.346;12.150;2023-11-18T08:42:03;5.77;;;2.80;;
14276;SDS011;7222;57.346;12.150;2023-11-18T08:44:32;6.37;;;3.60;;
14276;SDS011;7222;57.346;12.150;2023-11-18T08:46:59;4.93;;;3.50;;
14276;SDS011;7222;57.346;12.150;2023-11-18T08:49:31;6.10;;;3.27;;
14276;SDS011;7222;57.346;12.150;2023-11-18T08:51:59;6.53;;;3.20;;
14276;SDS011;7222;57.346;12.150;2023-11-18T08:54:26;5.77;;;2.97;;
14276;SDS011;7222;57.346;12.150;2023-11-18T08:57:03;3.50;;;2.80;;
14276;SDS011;7222;57.346;12.150;2023-11-18T08:59:44;3.83;;;2.60;;
14276;SDS011;7222;57.346;12.150;2023-11-18T09:02:11;4.40;;;2.80;;
14276;SDS011;7222;57.346;12.150;2023-11-18T09:04:40;4.70;;;3.07;;
14276;SDS011;7222;57.346;12.150;2023-11-18T09:07:08;5.23;;;3.30;;
14276;SDS011;7222;57.346;12.150;2023-11-18T09:09:36;5.70;;;3.70;;
14276;SDS011;7222;57.346;12.150;2023-11-18T09:12:06;12.10;;;4.03;;
14276;SDS011;7222;57.346;12.150;2023-11-18T09:14:33;5.30;;;3.17;;
14276;SDS011;7222;57.346;12.150;2023-11-18T09:17:00;7.03;;;3.33;;
14276;SDS011;7222;57.346;12.150;2023-11-18T09:19:27;7.27;;;3.83;;
14276;SDS011;7222;57.346;12.150;2023-11-18T09:21:54;7.70;;;3.77;;
14276;SDS011;7222;57.346;12.150;2023-11-18T09:24:21;4.37;;;3.30;;
14276;SDS011;7222;57.346;12.150;2023-11-18T09:26:50;5.63;;;3.03;;
14276;SDS011;7222;57.346;12.150;2023-11-18T09:29:19;6.37;;;3.87;;
14276;SDS011;7222;57.346;12.150;2023-11-18T09:31:49;6.50;;;3.80;;
14276;SDS011;7222;57.346;12.150;2023-11-18T09:34:17;8.27;;;4.73;;
14276;SDS011;7222;57.346;12.150;2023-11-18T09:36:52;9.53;;;4.17;;
14276;SDS011;7222;57.346;12.150;2023-11-18T09:39:19;7.43;;;4.10;;
14276;SDS011;7222;57.346;12.150;2023-11-18T09:42:02;11.17;;;4.47;;
14276;SDS011;7222;57.346;12.150;2023-11-18T09:44:35;8.60;;;4.50;;
14276;SDS011;7222;57.346;12.150;2023-11-18T09:47:04;7.60;;;3.93;;
14276;SDS011;7222;57.346;12.150;2023-11-18T09:49:37;6.90;;;3.20;;
14276;SDS011;7222;57.346;12.150;2023-11-18T09:52:09;6.27;;;4.13;;
14276;SDS011;7222;57.346;12.150;2023-11-18T09:54:45;7.30;;;3.97;;
14276;SDS011;7222;57.346;12.150;2023-11-18T09:57:23;9.73;;;4.20;;
14276;SDS011;7222;57.346;12.150;2023-11-18T09:59:58;6.33;;;3.97;;
14276;SDS011;7222;57.346;12.150;2023-11-18T10:02:44;7.73;;;4.20;;
14276;SDS011;7222;57.346;12.150;2023-11-18T10:05:12;10.13;;;4.73;;
14276;SDS011;7222;57.346;12.150;2023-11-18T10:07:39;6.77;;;4.07;;
14276;SDS011;7222;57.346;12.150;2023-11-18T10:10:08;9.83;;;4.97;;
14276;SDS011;7222;57.346;12.150;2023-11-18T10:12:39;10.43;;;4.53;;
14276;SDS011;7222;57.346;12.150;2023-11-18T10:15:10;7.17;;;4.40;;
14276;SDS011;7222;57.346;12.150;2023-11-18T10:17:39;7.23;;;4.50;;
14276;SDS011;7222;57.346;12.150;2023-11-18T10:20:20;6.93;;;3.80;;
14276;SDS011;7222;57.346;12.150;2023-11-18T10:22:50;7.60;;;4.13;;
14276;SDS011;7222;57.346;12.150;2023-11-18T10:25:32;7.03;;;4.40;;
14276;SDS011;7222;57.346;12.150;2023-11-18T10:28:00;7.70;;;4.90;;
14276;SDS011;7222;57.346;12.150;2023-11-18T10:30:29;5.70;;;3.53;;
14276;SDS011;7222;57.346;12.150;2023-11-18T10:32:58;7.77;;;4.07;;
14276;SDS011;7222;57.346;12.150;2023-11-18T10:35:31;8.83;;;4.93;;
14276;SDS011;7222;57.346;12.150;2023-11-18T10:38:00;7.80;;;4.17;;
14276;SDS011;7222;57.346;12.150;2023-11-18T10:40:31;7.17;;;3.83;;
14276;SDS011;7222;57.346;12.150;2023-11-18T10:43:00;8.20;;;4.47;;
14276;SDS011;7222;57.346;12.150;2023-11-18T10:45:35;9.53;;;4.40;;
14276;SDS011;7222;57.346;12.150;2023-11-18T10:48:04;7.03;;;4.03;;
14276;SDS011;7222;57.346;12.150;2023-11-18T10:50:31;9.87;;;3.60;;
14276;SDS011;7222;57.346;12.150;2023-11-18T10:52:58;7.43;;;3.73;;
14276;SDS011;7222;57.346;12.150;2023-11-18T10:55:36;8.10;;;3.90;;
14276;SDS011;7222;57.346;12.150;2023-11-18T10:58:05;6.93;;;3.67;;
14276;SDS011;7222;57.346;12.150;2023-11-18T11:00:46;6.57;;;3.70;;
14276;SDS011;7222;57.346;12.150;2023-11-18T11:03:14;6.50;;;3.27;;
14276;SDS011;7222;57.346;12.150;2023-11-18T11:05:43;8.23;;;3.07;;
14276;SDS011;7222;57.346;12.150;2023-11-18T11:08:11;7.50;;;4.03;;
14276;SDS011;7222;57.346;12.150;2023-11-18T11:10:41;6.30;;;3.27;;
14276;SDS011;7222;57.346;12.150;2023-11-18T11:13:08;7.97;;;4.20;;
14276;SDS011;7222;57.346;12.150;2023-11-18T11:15:41;7.30;;;3.97;;
14276;SDS011;7222;57.346;12.150;2023-11-18T11:18:20;6.60;;;3.50;;
14276;SDS011;7222;57.346;12.150;2023-11-18T11:20:55;5.90;;;3.87;;
14276;SDS011;7222;57.346;12.150;2023-11-18T11:23:30;6.60;;;3.80;;
14276;SDS011;7222;57.346;12.150;2023-11-18T11:26:12;8.07;;;3.37;;
14276;SDS011;7222;57.346;12.150;2023-11-18T11:28:48;5.67;;;3.10;;
14276;SDS011;7222;57.346;12.150;2023-11-18T11:31:23;4.70;;;3.13;;
14276;SDS011;7222;57.346;12.150;2023-11-18T11:33:59;6.40;;;3.43;;
14276;SDS011;7222;57.346;12.150;2023-11-18T11:36:34;4.90;;;2.73;;
14276;SDS011;7222;57.346;12.150;2023-11-18T11:39:06;5.13;;;3.23;;
14276;SDS011;7222;57.346;12.150;2023-11-18T11:41:39;5.33;;;3.37;;
14276;SDS011;7222;57.346;12.150;2023-11-18T11:44:10;6.07;;;3.53;;
14276;SDS011;7222;57.346;12.150;2023-11-18T11:46:38;5.83;;;3.40;;
14276;SDS011;7222;57.346;12.150;2023-11-18T11:49:09;5.03;;;2.77;;
14276;SDS011;7222;57.346;12.150;2023-11-18T11:51:46;4.40;;;3.33;;
14276;SDS011;7222;57.346;12.150;2023-11-18T11:54:20;5.83;;;3.10;;
14276;SDS011;7222;57.346;12.150;2023-11-18T11:56:55;5.77;;;2.93;;
14276;SDS011;7222;57.346;12.150;2023-11-18T12:02:22;4.73;;;2.53;;
14276;SDS011;7222;57.346;12.150;2023-11-18T12:04:55;5.10;;;3.20;;
14276;SDS011;7222;57.346;12.150;2023-11-18T12:07:24;6.97;;;2.97;;
14276;SDS011;7222;57.346;12.150;2023-11-18T12:09:56;4.83;;;2.70;;
14276;SDS011;7222;57.346;12.150;2023-11-18T12:12:24;3.67;;;2.53;;
14276;SDS011;7222;57.346;12.150;2023-11-18T12:14:52;4.83;;;2.67;;
14276;SDS011;7222;57.346;12.150;2023-11-18T12:17:22;6.37;;;3.17;;
14276;SDS011;7222;57.346;12.150;2023-11-18T12:19:55;4.23;;;2.53;;
14276;SDS011;7222;57.346;12.150;2023-11-18T12:22:24;4.57;;;2.83;;
14276;SDS011;7222;57.346;12.150;2023-11-18T12:27:57;4.50;;;3.00;;
14276;SDS011;7222;57.346;12.150;2023-11-18T12:30:40;5.10;;;3.37;;
14276;SDS011;7222;57.346;12.150;2023-11-18T12:36:44;3.47;;;2.63;;
14276;SDS011;7222;57.346;12.150;2023-11-18T12:39:40;3.63;;;2.43;;
14276;SDS011;7222;57.346;12.150;2023-11-18T12:42:53;4.30;;;2.50;;
14276;SDS011;7222;57.346;12.150;2023-11-18T12:48:26;2.97;;;2.30;;
14276;SDS011;7222;57.346;12.150;2023-11-18T12:50:57;5.30;;;2.70;;
14276;SDS011;7222;57.346;12.150;2023-11-18T12:53:26;5.03;;;3.03;;
14276;SDS011;7222;57.346;12.150;2023-11-18T12:55:54;2.43;;;2.00;;
14276;SDS011;7222;57.346;12.150;2023-11-18T12:58:23;4.07;;;2.57;;
14276;SDS011;7222;57.346;12.150;2023-11-18T13:00:50;3.73;;;2.30;;
14276;SDS011;7222;57.346;12.150;2023-11-18T13:03:17;4.00;;;2.67;;
14276;SDS011;7222;57.346;12.150;2023-11-18T13:05:45;3.37;;;2.13;;
14276;SDS011;7222;57.346;12.150;2023-11-18T13:08:13;2.83;;;2.33;;
14276;SDS011;7222;57.346;12.150;2023-11-18T13:10:43;3.37;;;2.30;;
14276;SDS011;7222;57.346;12.150;2023-11-18T13:13:10;2.77;;;2.30;;
14276;SDS011;7222;57.346;12.150;2023-11-18T13:15:40;2.20;;;1.93;;
14276;SDS011;7222;57.346;12.150;2023-11-18T13:18:07;3.30;;;1.83;;
14276;SDS011;7222;57.346;12.150;2023-11-18T13:20:34;3.27;;;2.20;;
14276;SDS011;7222;57.346;12.150;2023-11-18T13:23:02;2.20;;;1.80;;
14276;SDS011;7222;57.346;12.150;2023-11-18T13:25:33;3.20;;;1.83;;
14276;SDS011;7222;57.346;12.150;2023-11-18T13:28:04;2.73;;;2.00;;
14276;SDS011;7222;57.346;12.150;2023-11-18T13:30:32;2.13;;;1.93;;
14276;SDS011;7222;57.346;12.150;2023-11-18T13:32:59;2.63;;;2.13;;
14276;SDS011;7222;57.346;12.150;2023-11-18T13:35:27;2.97;;;1.87;;
14276;SDS011;7222;57.346;12.150;2023-11-18T13:37:54;3.53;;;2.33;;
14276;SDS011;7222;57.346;12.150;2023-11-18T13:40:23;3.70;;;2.30;;
14276;SDS011;7222;57.346;12.150;2023-11-18T13:43:01;5.13;;;3.27;;
14276;SDS011;7222;57.346;12.150;2023-11-18T13:45:31;5.17;;;2.23;;
14276;SDS011;7222;57.346;12.150;2023-11-18T13:47:59;2.53;;;1.83;;
14276;SDS011;7222;57.346;12.150;2023-11-18T13:50:27;2.07;;;1.90;;
14276;SDS011;7222;57.346;12.150;2023-11-18T13:52:54;3.13;;;1.80;;
14276;SDS011;7222;57.346;12.150;2023-11-18T13:55:22;6.20;;;3.73;;
14276;SDS011;7222;57.346;12.150;2023-11-18T13:57:53;3.60;;;2.00;;
14276;SDS011;7222;57.346;12.150;2023-11-18T14:00:21;2.57;;;1.80;;
14276;SDS011;7222;57.346;12.150;2023-11-18T14:02:53;1.40;;;1.30;;
14276;SDS011;7222;57.346;12.150;2023-11-18T14:05:21;1.90;;;1.70;;
14276;SDS011;7222;57.346;12.150;2023-11-18T14:07:49;1.80;;;1.70;;
14276;SDS011;7222;57.346;12.150;2023-11-18T14:10:17;2.67;;;1.80;;
14276;SDS011;7222;57.346;12.150;2023-11-18T14:13:00;2.30;;;1.80;;
14276;SDS011;7222;57.346;12.150;2023-11-18T14:15:30;2.07;;;1.60;;
14276;SDS011;7222;57.346;12.150;2023-11-18T14:18:01;2.50;;;1.80;;
14276;SDS011;7222;57.346;12.150;2023-11-18T14:20:29;1.63;;;1.47;;
14276;SDS011;7222;57.346;12.150;2023-11-18T14:22:56;2.60;;;1.33;;
14276;SDS011;7222;57.346;12.150;2023-11-18T14:25:23;1.87;;;1.50;;
14276;SDS011;7222;57.346;12.150;2023-11-18T14:27:51;1.30;;;1.20;;
14276;SDS011;7222;57.346;12.150;2023-11-18T14:30:18;1.90;;;1.60;;
14276;SDS011;7222;57.346;12.150;2023-11-18T14:32:45;2.50;;;1.53;;
14276;SDS011;7222;57.346;12.150;2023-11-18T14:35:14;3.03;;;1.73;;
14276;SDS011;7222;57.346;12.150;2023-11-18T14:37:42;2.67;;;1.60;;
14276;SDS011;7222;57.346;12.150;2023-11-18T14:40:10;2.50;;;1.63;;
14276;SDS011;7222;57.346;12.150;2023-11-18T14:42:39;1.77;;;1.30;;
14276;SDS011;7222;57.346;12.150;2023-11-18T14:45:08;2.33;;;1.80;;
14276;SDS011;7222;57.346;12.150;2023-11-18T14:47:37;2.47;;;1.70;;
14276;SDS011;7222;57.346;12.150;2023-11-18T14:50:04;2.10;;;1.83;;
14276;SDS011;7222;57.346;12.150;2023-11-18T14:52:41;2.20;;;2.00;;
14276;SDS011;7222;57.346;12.150;2023-11-18T14:55:08;2.37;;;2.17;;
14276;SDS011;7222;57.346;12.150;2023-11-18T14:57:37;2.90;;;2.03;;
14276;SDS011;7222;57.346;12.150;2023-11-18T15:00:05;4.90;;;2.37;;
14276;SDS011;7222;57.346;12.150;2023-11-18T15:02:44;1.83;;;1.57;;
14276;SDS011;7222;57.346;12.150;2023-11-18T15:05:15;1.93;;;1.70;;
14276;SDS011;7222;57.346;12.150;2023-11-18T15:07:45;2.23;;;1.83;;
14276;SDS011;7222;57.346;12.150;2023-11-18T15:10:16;2.97;;;2.00;;
14276;SDS011;7222;57.346;12.150;2023-11-18T15:12:47;1.93;;;1.67;;